sensor_id;sensor_type;location;lat;lon;timestamp;pressure;altitude;pressure_sealevel;temperature;humidity
53480;BME280;56133;51.012;-1.648;2022-12-18T00:01:05;101154.94;;;-1.13;100.00
53480;BME280;56133;51.012;-1.648;2022-12-18T00:03:35;101152.09;;;-1.07;100.00
53480;BME280;56133;51.012;-1.648;2022-12-18T00:06:01;101158.41;;;-1.11;100.00
53480;BME280;56133;51.012;-1.648;2022-12-18T00:08:28;101156.44;;;-1.04;100.00
53480;BME280;56133;51.012;-1.648;2022-12-18T00:10:53;101158.94;;;-1.00;100.00
53480;BME280;56133;51.012;-1.648;2022-12-18T00:13:19;101156.53;;;-1.08;100.00
53480;BME280;56133;51.012;-1.648;2022-12-18T00:15:44;101151.81;;;-0.96;100.00
53480;BME280;56133;51.012;-1.648;2022-12-18T00:18:10;101136.81;;;-0.94;100.00
53480;BME280;56133;51.012;-1.648;2022-12-18T00:20:37;101131.38;;;-0.89;100.00
53480;BME280;56133;51.012;-1.648;2022-12-18T00:23:03;101132.38;;;-0.94;100.00
53480;BME280;56133;51.012;-1.648;2022-12-18T00:25:28;101126.13;;;-0.89;100.00
53480;BME280;56133;51.012;-1.648;2022-12-18T00:27:54;101121.94;;;-0.97;100.00
53480;BME280;56133;51.012;-1.648;2022-12-18T00:30:19;101114.81;;;-0.93;100.00
53480;BME280;56133;51.012;-1.648;2022-12-18T00:32:45;101107.94;;;-0.99;100.00
53480;BME280;56133;51.012;-1.648;2022-12-18T00:35:10;101111.56;;;-1.03;100.00
53480;BME280;56133;51.012;-1.648;2022-12-18T00:37:36;101105.44;;;-1.03;100.00
53480;BME280;56133;51.012;-1.648;2022-12-18T00:40:02;101096.50;;;-0.99;100.00
53480;BME280;56133;51.012;-1.648;2022-12-18T00:42:28;101102.66;;;-0.99;100.00
53480;BME280;56133;51.012;-1.648;2022-12-18T00:45:12;101106.97;;;-0.96;100.00
53480;BME280;56133;51.012;-1.648;2022-12-18T00:47:37;101105.22;;;-0.96;100.00
53480;BME280;56133;51.012;-1.648;2022-12-18T00:50:03;101100.03;;;-1.00;100.00
53480;BME280;56133;51.012;-1.648;2022-12-18T00:52:28;101090.59;;;-1.08;100.00
53480;BME280;56133;51.012;-1.648;2022-12-18T00:54:54;101089.47;;;-0.99;100.00
53480;BME280;56133;51.012;-1.648;2022-12-18T00:57:19;101089.50;;;-1.00;100.00
53480;BME280;56133;51.012;-1.648;2022-12-18T00:59:45;101083.59;;;-1.09;100.00
53480;BME280;56133;51.012;-1.648;2022-12-18T01:02:10;101086.38;;;-1.13;100.00
53480;BME280;56133;51.012;-1.648;2022-12-18T01:04:35;101075.03;;;-1.17;100.00
53480;BME280;56133;51.012;-1.648;2022-12-18T01:07:01;101066.44;;;-1.24;100.00
53480;BME280;56133;51.012;-1.648;2022-12-18T01:09:26;101063.72;;;-1.20;100.00
53480;BME280;56133;51.012;-1.648;2022-12-18T01:11:52;101061.03;;;-1.19;100.00
53480;BME280;56133;51.012;-1.648;2022-12-18T01:14:17;101059.22;;;-1.17;100.00
53480;BME280;56133;51.012;-1.648;2022-12-18T01:16:43;101055.50;;;-1.10;100.00
53480;BME280;56133;51.012;-1.648;2022-12-18T01:19:08;101057.81;;;-0.99;100.00
53480;BME280;56133;51.012;-1.648;2022-12-18T01:21:34;101059.81;;;-1.07;100.00
53480;BME280;56133;51.012;-1.648;2022-12-18T01:23:59;101057.13;;;-1.05;100.00
53480;BME280;56133;51.012;-1.648;2022-12-18T01:26:25;101061.38;;;-1.00;100.00
53480;BME280;56133;51.012;-1.648;2022-12-18T01:28:54;101056.75;;;-0.93;100.00
53480;BME280;56133;51.012;-1.648;2022-12-18T01:31:22;101067.53;;;-1.01;100.00
53480;BME280;56133;51.012;-1.648;2022-12-18T01:33:49;101064.03;;;-1.01;100.00
53480;BME280;56133;51.012;-1.648;2022-12-18T01:36:19;101073.72;;;-1.02;100.00
53480;BME280;56133;51.012;-1.648;2022-12-18T01:38:45;101073.06;;;-1.09;100.00
53480;BME280;56133;51.012;-1.648;2022-12-18T01:41:11;101071.19;;;-1.05;100.00
53480;BME280;56133;51.012;-1.648;2022-12-18T01:43:46;101072.00;;;-1.03;100.00
53480;BME280;56133;51.012;-1.648;2022-12-18T01:46:12;101071.91;;;-1.00;100.00
53480;BME280;56133;51.012;-1.648;2022-12-18T01:48:38;101071.00;;;-0.99;100.00
53480;BME280;56133;51.012;-1.648;2022-12-18T01:51:06;101072.66;;;-0.95;100.00
53480;BME280;56133;51.012;-1.648;2022-12-18T01:53:33;101070.91;;;-0.96;100.00
53480;BME280;56133;51.012;-1.648;2022-12-18T01:55:59;101079.81;;;-1.00;100.00
53480;BME280;56133;51.012;-1.648;2022-12-18T01:58:41;101082.69;;;-1.08;100.00
53480;BME280;56133;51.012;-1.648;2022-12-18T02:01:10;101074.69;;;-1.04;100.00
53480;BME280;56133;51.012;-1.648;2022-12-18T02:03:36;101066.50;;;-0.95;100.00
53480;BME280;56133;51.012;-1.648;2022-12-18T02:09:02;101067.94;;;-0.85;100.00
53480;BME280;56133;51.012;-1.648;2022-12-18T02:14:08;101051.41;;;-0.90;100.00
53480;BME280;56133;51.012;-1.648;2022-12-18T02:19:37;101042.75;;;-0.95;100.00
53480;BME280;56133;51.012;-1.648;2022-12-18T02:27:32;101023.97;;;-0.84;100.00
53480;BME280;56133;51.012;-1.648;2022-12-18T02:30:01;101021.19;;;-0.80;100.00
53480;BME280;56133;51.012;-1.648;2022-12-18T02:32:35;101033.53;;;-0.80;100.00
53480;BME280;56133;51.012;-1.648;2022-12-18T02:35:04;101034.38;;;-0.80;100.00
53480;BME280;56133;51.012;-1.648;2022-12-18T02:37:32;101032.72;;;-0.84;100.00
53480;BME280;56133;51.012;-1.648;2022-12-18T02:39:59;101014.16;;;-0.81;100.00
53480;BME280;56133;51.012;-1.648;2022-12-18T02:42:26;101014.03;;;-0.76;100.00
53480;BME280;56133;51.012;-1.648;2022-12-18T02:44:53;101014.84;;;-0.74;100.00
53480;BME280;56133;51.012;-1.648;2022-12-18T02:47:21;101017.44;;;-0.72;100.00
53480;BME280;56133;51.012;-1.648;2022-12-18T02:58:58;101004.03;;;-0.66;100.00
53480;BME280;56133;51.012;-1.648;2022-12-18T03:01:34;100997.94;;;-0.68;100.00
53480;BME280;56133;51.012;-1.648;2022-12-18T03:04:10;100999.47;;;-0.61;100.00
53480;BME280;56133;51.012;-1.648;2022-12-18T03:06:43;100994.38;;;-0.67;100.00
53480;BME280;56133;51.012;-1.648;2022-12-18T03:09:14;100987.25;;;-0.64;100.00
53480;BME280;56133;51.012;-1.648;2022-12-18T03:11:43;100993.34;;;-0.62;100.00
53480;BME280;56133;51.012;-1.648;2022-12-18T03:14:30;100992.38;;;-0.59;100.00
53480;BME280;56133;51.012;-1.648;2022-12-18T03:17:00;100985.44;;;-0.62;100.00
53480;BME280;56133;51.012;-1.648;2022-12-18T03:19:28;100986.28;;;-0.61;100.00
53480;BME280;56133;51.012;-1.648;2022-12-18T03:21:57;100985.72;;;-0.71;100.00
53480;BME280;56133;51.012;-1.648;2022-12-18T03:24:26;100989.91;;;-0.64;100.00
53480;BME280;56133;51.012;-1.648;2022-12-18T03:26:55;100983.81;;;-0.66;100.00
53480;BME280;56133;51.012;-1.648;2022-12-18T03:29:27;100985.38;;;-0.60;100.00
53480;BME280;56133;51.012;-1.648;2022-12-18T03:32:02;100992.66;;;-0.68;100.00
53480;BME280;56133;51.012;-1.648;2022-12-18T03:34:33;100991.81;;;-0.69;100.00
53480;BME280;56133;51.012;-1.648;2022-12-18T03:37:02;100974.41;;;-0.74;100.00
53480;BME280;56133;51.012;-1.648;2022-12-18T03:39:27;100982.72;;;-0.60;100.00
53480;BME280;56133;51.012;-1.648;2022-12-18T03:41:58;100990.59;;;-0.58;100.00
53480;BME280;56133;51.012;-1.648;2022-12-18T03:44:30;100984.22;;;-0.51;100.00
53480;BME280;56133;51.012;-1.648;2022-12-18T03:55:09;100990.97;;;-0.42;100.00
53480;BME280;56133;51.012;-1.648;2022-12-18T03:57:35;100983.03;;;-0.42;100.00
53480;BME280;56133;51.012;-1.648;2022-12-18T04:00:12;100983.31;;;-0.50;100.00
53480;BME280;56133;51.012;-1.648;2022-12-18T04:02:43;100990.47;;;-0.54;100.00
53480;BME280;56133;51.012;-1.648;2022-12-18T04:05:11;100986.09;;;-0.55;100.00
53480;BME280;56133;51.012;-1.648;2022-12-18T04:07:38;100983.94;;;-0.43;100.00
53480;BME280;56133;51.012;-1.648;2022-12-18T04:10:06;100959.13;;;-0.38;100.00
53480;BME280;56133;51.012;-1.648;2022-12-18T04:12:32;100963.72;;;-0.43;100.00
53480;BME280;56133;51.012;-1.648;2022-12-18T04:14:57;100959.28;;;-0.42;100.00
53480;BME280;56133;51.012;-1.648;2022-12-18T04:17:23;100942.53;;;-0.41;100.00
53480;BME280;56133;51.012;-1.648;2022-12-18T04:19:49;100940.47;;;-0.33;100.00
53480;BME280;56133;51.012;-1.648;2022-12-18T04:22:14;100935.06;;;-0.28;100.00
53480;BME280;56133;51.012;-1.648;2022-12-18T04:24:39;100930.34;;;-0.20;100.00
53480;BME280;56133;51.012;-1.648;2022-12-18T04:27:05;100924.22;;;-0.21;100.00
53480;BME280;56133;51.012;-1.648;2022-12-18T04:29:31;100922.41;;;-0.19;100.00
53480;BME280;56133;51.012;-1.648;2022-12-18T04:31:56;100917.88;;;-0.17;100.00
53480;BME280;56133;51.012;-1.648;2022-12-18T04:34:22;100912.78;;;-0.21;100.00
53480;BME280;56133;51.012;-1.648;2022-12-18T04:36:47;100910.91;;;-0.18;100.00
53480;BME280;56133;51.012;-1.648;2022-12-18T04:39:13;100900.91;;;-0.09;100.00
53480;BME280;56133;51.012;-1.648;2022-12-18T04:41:39;100892.00;;;-0.07;100.00
53480;BME280;56133;51.012;-1.648;2022-12-18T04:44:04;100899.38;;;-0.15;100.00
53480;BME280;56133;51.012;-1.648;2022-12-18T04:46:30;100895.97;;;-0.19;100.00
53480;BME280;56133;51.012;-1.648;2022-12-18T04:48:55;100890.56;;;-0.16;100.00
53480;BME280;56133;51.012;-1.648;2022-12-18T04:51:21;100885.16;;;-0.11;100.00
53480;BME280;56133;51.012;-1.648;2022-12-18T04:53:46;100889.63;;;-0.13;100.00
53480;BME280;56133;51.012;-1.648;2022-12-18T04:56:14;100886.28;;;-0.18;100.00
53480;BME280;56133;51.012;-1.648;2022-12-18T04:58:41;100879.69;;;-0.06;100.00
53480;BME280;56133;51.012;-1.648;2022-12-18T05:01:08;100870.88;;;-0.07;100.00
53480;BME280;56133;51.012;-1.648;2022-12-18T05:03:35;100869.84;;;-0.03;100.00
53480;BME280;56133;51.012;-1.648;2022-12-18T05:06:00;100870.19;;;0.12;100.00
53480;BME280;56133;51.012;-1.648;2022-12-18T05:08:26;100862.97;;;0.17;100.00
53480;BME280;56133;51.012;-1.648;2022-12-18T05:11:10;100865.25;;;0.26;100.00
53480;BME280;56133;51.012;-1.648;2022-12-18T05:13:36;100862.97;;;0.41;100.00
53480;BME280;56133;51.012;-1.648;2022-12-18T05:16:03;100853.00;;;0.48;100.00
53480;BME280;56133;51.012;-1.648;2022-12-18T05:18:29;100857.53;;;0.44;100.00
53480;BME280;56133;51.012;-1.648;2022-12-18T05:20:55;100856.16;;;0.57;100.00
53480;BME280;56133;51.012;-1.648;2022-12-18T05:23:22;100833.00;;;0.63;100.00
53480;BME280;56133;51.012;-1.648;2022-12-18T05:25:58;100835.28;;;0.72;100.00
53480;BME280;56133;51.012;-1.648;2022-12-18T05:28:26;100831.09;;;0.88;100.00
53480;BME280;56133;51.012;-1.648;2022-12-18T05:30:54;100826.31;;;0.76;100.00
53480;BME280;56133;51.012;-1.648;2022-12-18T05:33:22;100807.34;;;0.87;100.00
53480;BME280;56133;51.012;-1.648;2022-12-18T05:35:56;100800.53;;;0.81;100.00
53480;BME280;56133;51.012;-1.648;2022-12-18T05:38:24;100791.41;;;0.88;100.00
53480;BME280;56133;51.012;-1.648;2022-12-18T05:40:50;100770.31;;;0.87;100.00
53480;BME280;56133;51.012;-1.648;2022-12-18T05:43:17;100767.50;;;0.92;100.00
53480;BME280;56133;51.012;-1.648;2022-12-18T05:45:43;100763.91;;;0.93;100.00
53480;BME280;56133;51.012;-1.648;2022-12-18T05:48:09;100755.50;;;1.03;100.00
53480;BME280;56133;51.012;-1.648;2022-12-18T05:50:40;100754.41;;;1.09;100.00
53480;BME280;56133;51.012;-1.648;2022-12-18T05:53:06;100745.38;;;1.13;100.00
53480;BME280;56133;51.012;-1.648;2022-12-18T05:55:36;100742.47;;;1.19;100.00
53480;BME280;56133;51.012;-1.648;2022-12-18T05:58:03;100739.69;;;1.23;100.00
53480;BME280;56133;51.012;-1.648;2022-12-18T06:00:29;100741.91;;;1.32;100.00
53480;BME280;56133;51.012;-1.648;2022-12-18T06:02:55;100739.72;;;1.42;100.00
53480;BME280;56133;51.012;-1.648;2022-12-18T06:05:20;100740.50;;;1.44;100.00
53480;BME280;56133;51.012;-1.648;2022-12-18T06:07:46;100744.53;;;1.52;100.00
53480;BME280;56133;51.012;-1.648;2022-12-18T06:10:11;100729.44;;;1.55;100.00
53480;BME280;56133;51.012;-1.648;2022-12-18T06:12:37;100727.28;;;1.63;100.00
53480;BME280;56133;51.012;-1.648;2022-12-18T06:15:03;100730.00;;;1.61;100.00
53480;BME280;56133;51.012;-1.648;2022-12-18T06:17:29;100743.13;;;1.64;100.00
53480;BME280;56133;51.012;-1.648;2022-12-18T06:19:55;100741.63;;;1.78;100.00
53480;BME280;56133;51.012;-1.648;2022-12-18T06:22:20;100748.72;;;1.77;100.00
53480;BME280;56133;51.012;-1.648;2022-12-18T06:24:45;100737.19;;;1.78;100.00
53480;BME280;56133;51.012;-1.648;2022-12-18T06:27:11;100732.53;;;1.84;100.00
53480;BME280;56133;51.012;-1.648;2022-12-18T06:29:36;100729.44;;;1.93;100.00
53480;BME280;56133;51.012;-1.648;2022-12-18T06:32:02;100726.72;;;1.94;100.00
53480;BME280;56133;51.012;-1.648;2022-12-18T06:34:27;100714.03;;;2.01;100.00
53480;BME280;56133;51.012;-1.648;2022-12-18T06:36:52;100725.41;;;2.03;100.00
53480;BME280;56133;51.012;-1.648;2022-12-18T06:39:18;100720.22;;;2.02;100.00
53480;BME280;56133;51.012;-1.648;2022-12-18T06:41:43;100733.09;;;2.09;100.00
53480;BME280;56133;51.012;-1.648;2022-12-18T06:44:09;100732.94;;;2.12;100.00
53480;BME280;56133;51.012;-1.648;2022-12-18T06:46:35;100739.09;;;2.13;100.00
53480;BME280;56133;51.012;-1.648;2022-12-18T06:49:00;100733.69;;;2.15;100.00
53480;BME280;56133;51.012;-1.648;2022-12-18T06:51:26;100735.44;;;2.16;100.00
53480;BME280;56133;51.012;-1.648;2022-12-18T06:53:51;100732.56;;;2.20;100.00
53480;BME280;56133;51.012;-1.648;2022-12-18T06:56:17;100734.56;;;2.15;100.00
53480;BME280;56133;51.012;-1.648;2022-12-18T06:58:42;100734.13;;;2.24;100.00
53480;BME280;56133;51.012;-1.648;2022-12-18T07:01:09;100737.88;;;2.20;100.00
53480;BME280;56133;51.012;-1.648;2022-12-18T07:03:36;100735.00;;;2.25;100.00
53480;BME280;56133;51.012;-1.648;2022-12-18T07:06:02;100736.06;;;2.21;100.00
53480;BME280;56133;51.012;-1.648;2022-12-18T07:08:29;100733.13;;;2.27;100.00
53480;BME280;56133;51.012;-1.648;2022-12-18T07:10:55;100724.94;;;2.32;100.00
53480;BME280;56133;51.012;-1.648;2022-12-18T07:13:20;100730.41;;;2.28;100.00
53480;BME280;56133;51.012;-1.648;2022-12-18T07:15:46;100731.31;;;2.27;100.00
53480;BME280;56133;51.012;-1.648;2022-12-18T07:18:11;100726.81;;;2.30;100.00
53480;BME280;56133;51.012;-1.648;2022-12-18T07:20:37;100731.03;;;2.34;100.00
53480;BME280;56133;51.012;-1.648;2022-12-18T07:23:03;100747.00;;;2.32;100.00
53480;BME280;56133;51.012;-1.648;2022-12-18T07:25:29;100738.50;;;2.25;100.00
53480;BME280;56133;51.012;-1.648;2022-12-18T07:27:54;100726.13;;;2.26;100.00
53480;BME280;56133;51.012;-1.648;2022-12-18T07:30:19;100708.53;;;2.23;100.00
53480;BME280;56133;51.012;-1.648;2022-12-18T07:32:45;100705.13;;;2.21;100.00
53480;BME280;56133;51.012;-1.648;2022-12-18T07:35:10;100708.72;;;2.20;100.00
53480;BME280;56133;51.012;-1.648;2022-12-18T07:37:36;100700.13;;;2.15;100.00
53480;BME280;56133;51.012;-1.648;2022-12-18T07:40:01;100707.28;;;2.13;100.00
53480;BME280;56133;51.012;-1.648;2022-12-18T07:42:27;100712.13;;;2.05;100.00
53480;BME280;56133;51.012;-1.648;2022-12-18T07:44:56;100719.47;;;2.17;100.00
53480;BME280;56133;51.012;-1.648;2022-12-18T07:47:21;100716.41;;;2.07;100.00
53480;BME280;56133;51.012;-1.648;2022-12-18T07:49:47;100705.78;;;2.07;100.00
53480;BME280;56133;51.012;-1.648;2022-12-18T07:52:12;100710.06;;;2.10;100.00
53480;BME280;56133;51.012;-1.648;2022-12-18T07:54:38;100721.25;;;2.17;100.00
53480;BME280;56133;51.012;-1.648;2022-12-18T07:57:04;100728.19;;;2.19;100.00
53480;BME280;56133;51.012;-1.648;2022-12-18T07:59:29;100723.34;;;2.10;100.00
53480;BME280;56133;51.012;-1.648;2022-12-18T08:01:55;100713.38;;;2.15;100.00
53480;BME280;56133;51.012;-1.648;2022-12-18T08:04:20;100719.59;;;2.14;100.00
53480;BME280;56133;51.012;-1.648;2022-12-18T08:06:46;100724.91;;;2.14;100.00
53480;BME280;56133;51.012;-1.648;2022-12-18T08:09:11;100715.25;;;2.13;100.00
53480;BME280;56133;51.012;-1.648;2022-12-18T08:11:36;100722.25;;;2.14;100.00
53480;BME280;56133;51.012;-1.648;2022-12-18T08:14:02;100725.97;;;2.10;100.00
53480;BME280;56133;51.012;-1.648;2022-12-18T08:16:27;100727.56;;;2.14;100.00
53480;BME280;56133;51.012;-1.648;2022-12-18T08:18:54;100741.50;;;2.18;100.00
53480;BME280;56133;51.012;-1.648;2022-12-18T08:21:22;100742.53;;;2.15;100.00
53480;BME280;56133;51.012;-1.648;2022-12-18T08:23:49;100752.63;;;2.07;100.00
53480;BME280;56133;51.012;-1.648;2022-12-18T08:26:15;100749.13;;;2.06;100.00
53480;BME280;56133;51.012;-1.648;2022-12-18T08:28:41;100743.41;;;1.96;100.00
53480;BME280;56133;51.012;-1.648;2022-12-18T08:31:07;100748.28;;;1.87;100.00
53480;BME280;56133;51.012;-1.648;2022-12-18T08:33:34;100756.00;;;1.72;100.00
53480;BME280;56133;51.012;-1.648;2022-12-18T08:36:00;100742.09;;;1.67;100.00
53480;BME280;56133;51.012;-1.648;2022-12-18T08:38:26;100734.28;;;1.64;100.00
53480;BME280;56133;51.012;-1.648;2022-12-18T08:41:10;100732.16;;;1.72;100.00
53480;BME280;56133;51.012;-1.648;2022-12-18T08:43:35;100729.78;;;1.66;100.00
53480;BME280;56133;51.012;-1.648;2022-12-18T08:46:21;100727.44;;;1.60;100.00
53480;BME280;56133;51.012;-1.648;2022-12-18T08:48:50;100738.09;;;1.58;100.00
53480;BME280;56133;51.012;-1.648;2022-12-18T08:51:16;100733.72;;;1.57;100.00
53480;BME280;56133;51.012;-1.648;2022-12-18T08:53:42;100733.31;;;1.66;100.00
53480;BME280;56133;51.012;-1.648;2022-12-18T08:56:09;100735.84;;;1.70;100.00
53480;BME280;56133;51.012;-1.648;2022-12-18T08:58:35;100730.81;;;1.63;100.00
53480;BME280;56133;51.012;-1.648;2022-12-18T09:01:05;100720.22;;;1.63;100.00
53480;BME280;56133;51.012;-1.648;2022-12-18T09:03:31;100715.72;;;1.65;100.00
53480;BME280;56133;51.012;-1.648;2022-12-18T09:05:56;100703.44;;;1.63;100.00
53480;BME280;56133;51.012;-1.648;2022-12-18T09:08:22;100694.66;;;1.62;100.00
53480;BME280;56133;51.012;-1.648;2022-12-18T09:10:49;100698.88;;;1.66;100.00
53480;BME280;56133;51.012;-1.648;2022-12-18T09:13:16;100697.22;;;1.64;100.00
53480;BME280;56133;51.012;-1.648;2022-12-18T09:15:46;100683.91;;;1.65;100.00
53480;BME280;56133;51.012;-1.648;2022-12-18T09:18:13;100687.28;;;1.69;100.00
53480;BME280;56133;51.012;-1.648;2022-12-18T09:20:39;100681.31;;;1.64;100.00
53480;BME280;56133;51.012;-1.648;2022-12-18T09:23:05;100676.63;;;1.71;100.00
53480;BME280;56133;51.012;-1.648;2022-12-18T09:25:32;100675.88;;;1.67;100.00
53480;BME280;56133;51.012;-1.648;2022-12-18T09:28:17;100671.34;;;1.71;100.00
53480;BME280;56133;51.012;-1.648;2022-12-18T09:30:46;100682.91;;;1.68;100.00
53480;BME280;56133;51.012;-1.648;2022-12-18T09:33:12;100671.25;;;1.72;100.00
53480;BME280;56133;51.012;-1.648;2022-12-18T09:35:42;100667.72;;;1.72;100.00
53480;BME280;56133;51.012;-1.648;2022-12-18T09:38:11;100661.13;;;1.80;100.00
53480;BME280;56133;51.012;-1.648;2022-12-18T09:40:49;100651.41;;;1.81;100.00
53480;BME280;56133;51.012;-1.648;2022-12-18T09:43:41;100647.69;;;1.85;100.00
53480;BME280;56133;51.012;-1.648;2022-12-18T09:46:11;100661.88;;;1.84;100.00
53480;BME280;56133;51.012;-1.648;2022-12-18T09:48:42;100654.91;;;1.81;100.00
53480;BME280;56133;51.012;-1.648;2022-12-18T09:51:41;100662.78;;;1.83;100.00
53480;BME280;56133;51.012;-1.648;2022-12-18T09:54:15;100662.66;;;1.86;100.00
53480;BME280;56133;51.012;-1.648;2022-12-18T09:56:43;100672.47;;;1.84;100.00
53480;BME280;56133;51.012;-1.648;2022-12-18T09:59:25;100675.25;;;1.81;100.00
53480;BME280;56133;51.012;-1.648;2022-12-18T10:01:52;100673.25;;;1.86;100.00
53480;BME280;56133;51.012;-1.648;2022-12-18T10:04:18;100682.69;;;1.92;100.00
53480;BME280;56133;51.012;-1.648;2022-12-18T10:07:01;100649.88;;;1.94;100.00
53480;BME280;56133;51.012;-1.648;2022-12-18T10:09:42;100655.81;;;2.00;100.00
53480;BME280;56133;51.012;-1.648;2022-12-18T10:12:30;100647.22;;;1.94;100.00
53480;BME280;56133;51.012;-1.648;2022-12-18T10:25:25;100654.66;;;2.05;100.00
53480;BME280;56133;51.012;-1.648;2022-12-18T10:27:58;100656.28;;;2.08;100.00
53480;BME280;56133;51.012;-1.648;2022-12-18T10:30:26;100650.84;;;2.11;100.00
53480;BME280;56133;51.012;-1.648;2022-12-18T10:32:51;100640.88;;;2.16;100.00
53480;BME280;56133;51.012;-1.648;2022-12-18T10:38:07;100628.41;;;2.18;100.00
53480;BME280;56133;51.012;-1.648;2022-12-18T10:40:57;100621.28;;;2.19;100.00
53480;BME280;56133;51.012;-1.648;2022-12-18T10:43:30;100601.56;;;2.24;100.00
53480;BME280;56133;51.012;-1.648;2022-12-18T10:48:28;100582.94;;;2.26;100.00
53480;BME280;56133;51.012;-1.648;2022-12-18T10:50:55;100586.44;;;2.26;100.00
53480;BME280;56133;51.012;-1.648;2022-12-18T10:53:25;100580.91;;;2.31;100.00
53480;BME280;56133;51.012;-1.648;2022-12-18T10:55:53;100571.03;;;2.35;100.00
53480;BME280;56133;51.012;-1.648;2022-12-18T11:03:39;100557.22;;;2.46;100.00
53480;BME280;56133;51.012;-1.648;2022-12-18T11:06:14;100534.03;;;2.49;100.00
53480;BME280;56133;51.012;-1.648;2022-12-18T11:08:42;100534.88;;;2.50;100.00
53480;BME280;56133;51.012;-1.648;2022-12-18T11:11:28;100533.72;;;2.55;100.00
53480;BME280;56133;51.012;-1.648;2022-12-18T11:14:03;100524.41;;;2.64;100.00
53480;BME280;56133;51.012;-1.648;2022-12-18T11:16:34;100517.59;;;2.58;100.00
53480;BME280;56133;51.012;-1.648;2022-12-18T11:21:41;100529.56;;;2.83;100.00
53480;BME280;56133;51.012;-1.648;2022-12-18T11:24:27;100520.41;;;2.89;100.00
53480;BME280;56133;51.012;-1.648;2022-12-18T11:26:54;100514.69;;;2.97;100.00
53480;BME280;56133;51.012;-1.648;2022-12-18T11:29:46;100519.81;;;3.00;100.00
53480;BME280;56133;51.012;-1.648;2022-12-18T11:34:44;100495.34;;;3.11;100.00
53480;BME280;56133;51.012;-1.648;2022-12-18T11:37:12;100489.00;;;3.13;100.00
53480;BME280;56133;51.012;-1.648;2022-12-18T11:39:59;100491.88;;;3.25;100.00
53480;BME280;56133;51.012;-1.648;2022-12-18T11:42:35;100483.53;;;3.16;100.00
53480;BME280;56133;51.012;-1.648;2022-12-18T11:47:49;100473.56;;;3.36;100.00
53480;BME280;56133;51.012;-1.648;2022-12-18T11:50:20;100466.94;;;3.43;100.00
53480;BME280;56133;51.012;-1.648;2022-12-18T11:52:47;100456.16;;;3.46;100.00
53480;BME280;56133;51.012;-1.648;2022-12-18T11:55:15;100448.78;;;3.52;100.00
53480;BME280;56133;51.012;-1.648;2022-12-18T11:58:07;100444.78;;;3.59;100.00
53480;BME280;56133;51.012;-1.648;2022-12-18T12:01:31;100431.44;;;3.60;100.00
53480;BME280;56133;51.012;-1.648;2022-12-18T12:06:24;100421.78;;;3.74;100.00
53480;BME280;56133;51.012;-1.648;2022-12-18T12:17:09;100390.59;;;3.92;100.00
53480;BME280;56133;51.012;-1.648;2022-12-18T12:22:31;100376.91;;;3.98;100.00
53480;BME280;56133;51.012;-1.648;2022-12-18T12:35:29;100350.06;;;4.17;100.00
53480;BME280;56133;51.012;-1.648;2022-12-18T12:40:56;100350.72;;;4.21;100.00
53480;BME280;56133;51.012;-1.648;2022-12-18T12:43:50;100349.00;;;4.20;100.00
53480;BME280;56133;51.012;-1.648;2022-12-18T12:46:17;100348.53;;;4.28;100.00
53480;BME280;56133;51.012;-1.648;2022-12-18T12:51:26;100338.81;;;4.41;100.00
53480;BME280;56133;51.012;-1.648;2022-12-18T12:53:54;100332.84;;;4.37;100.00
53480;BME280;56133;51.012;-1.648;2022-12-18T12:56:22;100335.56;;;4.36;100.00
53480;BME280;56133;51.012;-1.648;2022-12-18T12:58:52;100332.53;;;4.42;100.00
53480;BME280;56133;51.012;-1.648;2022-12-18T13:07:12;100320.81;;;4.59;100.00
53480;BME280;56133;51.012;-1.648;2022-12-18T13:10:13;100314.13;;;4.66;100.00
53480;BME280;56133;51.012;-1.648;2022-12-18T13:12:53;100305.81;;;4.71;100.00
53480;BME280;56133;51.012;-1.648;2022-12-18T13:15:43;100309.81;;;4.78;100.00
53480;BME280;56133;51.012;-1.648;2022-12-18T13:20:36;100317.09;;;4.89;100.00
53480;BME280;56133;51.012;-1.648;2022-12-18T13:36:45;100292.88;;;5.20;100.00
53480;BME280;56133;51.012;-1.648;2022-12-18T13:41:40;100274.22;;;5.32;100.00
53480;BME280;56133;51.012;-1.648;2022-12-18T13:46:57;100274.38;;;5.44;100.00
53480;BME280;56133;51.012;-1.648;2022-12-18T13:49:36;100268.50;;;5.52;100.00
53480;BME280;56133;51.012;-1.648;2022-12-18T13:52:18;100258.88;;;5.49;100.00
53480;BME280;56133;51.012;-1.648;2022-12-18T13:54:50;100251.75;;;5.62;100.00
53480;BME280;56133;51.012;-1.648;2022-12-18T13:57:36;100246.19;;;5.66;100.00
53480;BME280;56133;51.012;-1.648;2022-12-18T14:00:28;100236.69;;;5.74;100.00
53480;BME280;56133;51.012;-1.648;2022-12-18T14:02:55;100227.31;;;5.82;100.00
53480;BME280;56133;51.012;-1.648;2022-12-18T14:05:30;100232.50;;;5.83;100.00
53480;BME280;56133;51.012;-1.648;2022-12-18T14:08:08;100210.56;;;5.80;100.00
53480;BME280;56133;51.012;-1.648;2022-12-18T14:10:35;100213.53;;;5.88;100.00
53480;BME280;56133;51.012;-1.648;2022-12-18T14:13:08;100209.56;;;5.93;100.00
53480;BME280;56133;51.012;-1.648;2022-12-18T14:15:43;100199.00;;;5.92;100.00
53480;BME280;56133;51.012;-1.648;2022-12-18T14:18:29;100198.16;;;6.04;100.00
53480;BME280;56133;51.012;-1.648;2022-12-18T14:20:59;100203.50;;;6.04;100.00
53480;BME280;56133;51.012;-1.648;2022-12-18T14:23:38;100184.94;;;6.03;100.00
53480;BME280;56133;51.012;-1.648;2022-12-18T14:26:29;100195.25;;;6.07;100.00
53480;BME280;56133;51.012;-1.648;2022-12-18T14:29:23;100186.81;;;6.14;100.00
53480;BME280;56133;51.012;-1.648;2022-12-18T14:32:24;100185.72;;;6.16;100.00
53480;BME280;56133;51.012;-1.648;2022-12-18T14:34:53;100172.16;;;6.19;100.00
53480;BME280;56133;51.012;-1.648;2022-12-18T14:37:25;100176.31;;;6.23;100.00
53480;BME280;56133;51.012;-1.648;2022-12-18T14:40:01;100174.16;;;6.29;100.00
53480;BME280;56133;51.012;-1.648;2022-12-18T14:42:29;100176.94;;;6.27;100.00
53480;BME280;56133;51.012;-1.648;2022-12-18T14:47:59;100171.75;;;6.37;100.00